sensor_id;sensor_type;location;lat;lon;timestamp;P1;durP1;ratioP1;P2;durP2;ratioP2
22480;SDS011;11407;56.964;-2.212;2023-11-21T00:02:09;1.43;;;0.60;;
22480;SDS011;11407;56.964;-2.212;2023-11-21T00:04:35;3.80;;;0.80;;
22480;SDS011;11407;56.964;-2.212;2023-11-21T00:07:00;3.77;;;0.80;;
22480;SDS011;11407;56.964;-2.212;2023-11-21T00:09:25;2.43;;;0.80;;
22480;SDS011;11407;56.964;-2.212;2023-11-21T00:11:50;4.03;;;0.70;;
22480;SDS011;11407;56.964;-2.212;2023-11-21T00:14:16;6.63;;;1.10;;
22480;SDS011;11407;56.964;-2.212;2023-11-21T00:16:41;3.47;;;0.63;;
22480;SDS011;11407;56.964;-2.212;2023-11-21T00:19:06;1.70;;;0.67;;
22480;SDS011;11407;56.964;-2.212;2023-11-21T00:21:32;1.23;;;0.70;;
22480;SDS011;11407;56.964;-2.212;2023-11-21T00:23:57;4.90;;;1.07;;
22480;SDS011;11407;56.964;-2.212;2023-11-21T00:26:22;3.97;;;0.97;;
22480;SDS011;11407;56.964;-2.212;2023-11-21T00:28:49;7.23;;;1.03;;
22480;SDS011;11407;56.964;-2.212;2023-11-21T00:31:14;4.17;;;0.83;;
22480;SDS011;11407;56.964;-2.212;2023-11-21T00:33:39;4.80;;;0.93;;
22480;SDS011;11407;56.964;-2.212;2023-11-21T00:36:05;3.00;;;1.00;;
22480;SDS011;11407;56.964;-2.212;2023-11-21T00:38:34;4.10;;;1.03;;
22480;SDS011;11407;56.964;-2.212;2023-11-21T00:40:59;4.73;;;0.97;;
22480;SDS011;11407;56.964;-2.212;2023-11-21T00:43:25;4.10;;;1.17;;
22480;SDS011;11407;56.964;-2.212;2023-11-21T00:45:50;3.57;;;1.13;;
22480;SDS011;11407;56.964;-2.212;2023-11-21T00:48:16;6.17;;;1.33;;
22480;SDS011;11407;56.964;-2.212;2023-11-21T00:50:41;4.07;;;0.90;;
22480;SDS011;11407;56.964;-2.212;2023-11-21T00:53:07;3.00;;;1.03;;
22480;SDS011;11407;56.964;-2.212;2023-11-21T00:55:36;5.57;;;1.13;;
22480;SDS011;11407;56.964;-2.212;2023-11-21T00:58:01;2.23;;;0.70;;
22480;SDS011;11407;56.964;-2.212;2023-11-21T01:00:29;1.33;;;0.80;;
22480;SDS011;11407;56.964;-2.212;2023-11-21T01:02:54;2.50;;;0.90;;
22480;SDS011;11407;56.964;-2.212;2023-11-21T01:05:20;4.40;;;1.00;;
22480;SDS011;11407;56.964;-2.212;2023-11-21T01:07:45;1.77;;;0.80;;
22480;SDS011;11407;56.964;-2.212;2023-11-21T01:10:10;2.90;;;1.27;;
22480;SDS011;11407;56.964;-2.212;2023-11-21T01:12:36;2.60;;;0.90;;
22480;SDS011;11407;56.964;-2.212;2023-11-21T01:15:03;4.03;;;1.00;;
22480;SDS011;11407;56.964;-2.212;2023-11-21T01:17:28;3.17;;;0.80;;
22480;SDS011;11407;56.964;-2.212;2023-11-21T01:19:54;1.73;;;1.00;;
22480;SDS011;11407;56.964;-2.212;2023-11-21T01:22:19;3.10;;;1.00;;
22480;SDS011;11407;56.964;-2.212;2023-11-21T01:24:50;2.17;;;0.80;;
22480;SDS011;11407;56.964;-2.212;2023-11-21T01:27:15;3.03;;;0.90;;
22480;SDS011;11407;56.964;-2.212;2023-11-21T01:29:42;3.90;;;0.90;;
22480;SDS011;11407;56.964;-2.212;2023-11-21T01:32:07;7.43;;;1.17;;
22480;SDS011;11407;56.964;-2.212;2023-11-21T01:34:33;2.27;;;0.77;;
22480;SDS011;11407;56.964;-2.212;2023-11-21T01:36:58;4.30;;;1.10;;
22480;SDS011;11407;56.964;-2.212;2023-11-21T01:39:23;1.70;;;0.80;;
22480;SDS011;11407;56.964;-2.212;2023-11-21T01:41:49;2.83;;;0.80;;
22480;SDS011;11407;56.964;-2.212;2023-11-21T01:44:15;3.10;;;1.30;;
22480;SDS011;11407;56.964;-2.212;2023-11-21T01:46:42;3.13;;;0.93;;
22480;SDS011;11407;56.964;-2.212;2023-11-21T01:49:07;2.40;;;0.93;;
22480;SDS011;11407;56.964;-2.212;2023-11-21T01:51:34;8.93;;;1.43;;
22480;SDS011;11407;56.964;-2.212;2023-11-21T01:54:00;2.07;;;0.80;;
22480;SDS011;11407;56.964;-2.212;2023-11-21T01:56:26;4.87;;;1.10;;
22480;SDS011;11407;56.964;-2.212;2023-11-21T01:58:51;3.60;;;1.03;;
22480;SDS011;11407;56.964;-2.212;2023-11-21T02:01:16;4.07;;;1.00;;
22480;SDS011;11407;56.964;-2.212;2023-11-21T02:03:44;3.73;;;0.90;;
22480;SDS011;11407;56.964;-2.212;2023-11-21T02:06:09;7.17;;;1.10;;
22480;SDS011;11407;56.964;-2.212;2023-11-21T02:08:34;3.37;;;1.03;;
22480;SDS011;11407;56.964;-2.212;2023-11-21T02:11:02;4.53;;;1.10;;
22480;SDS011;11407;56.964;-2.212;2023-11-21T02:13:28;4.70;;;1.10;;
22480;SDS011;11407;56.964;-2.212;2023-11-21T02:15:53;6.30;;;1.17;;
22480;SDS011;11407;56.964;-2.212;2023-11-21T02:18:19;4.13;;;1.17;;
22480;SDS011;11407;56.964;-2.212;2023-11-21T02:20:44;6.07;;;1.40;;
22480;SDS011;11407;56.964;-2.212;2023-11-21T02:23:11;4.57;;;1.03;;
22480;SDS011;11407;56.964;-2.212;2023-11-21T02:25:37;6.53;;;1.37;;
22480;SDS011;11407;56.964;-2.212;2023-11-21T02:28:03;3.97;;;1.17;;
22480;SDS011;11407;56.964;-2.212;2023-11-21T02:30:29;6.23;;;1.13;;
22480;SDS011;11407;56.964;-2.212;2023-11-21T02:32:55;6.27;;;1.13;;
22480;SDS011;11407;56.964;-2.212;2023-11-21T02:35:23;4.37;;;1.20;;
22480;SDS011;11407;56.964;-2.212;2023-11-21T02:37:51;5.97;;;1.00;;
22480;SDS011;11407;56.964;-2.212;2023-11-21T02:40:16;4.73;;;1.40;;
22480;SDS011;11407;56.964;-2.212;2023-11-21T02:42:48;5.47;;;1.20;;
22480;SDS011;11407;56.964;-2.212;2023-11-21T02:45:16;5.03;;;1.20;;
22480;SDS011;11407;56.964;-2.212;2023-11-21T02:47:42;3.67;;;1.40;;
22480;SDS011;11407;56.964;-2.212;2023-11-21T02:50:07;5.93;;;1.07;;
22480;SDS011;11407;56.964;-2.212;2023-11-21T02:52:34;9.53;;;1.10;;
22480;SDS011;11407;56.964;-2.212;2023-11-21T02:55:00;5.60;;;0.90;;
22480;SDS011;11407;56.964;-2.212;2023-11-21T02:57:25;5.77;;;1.70;;
22480;SDS011;11407;56.964;-2.212;2023-11-21T02:59:50;2.90;;;1.10;;
22480;SDS011;11407;56.964;-2.212;2023-11-21T03:02:16;4.97;;;1.50;;
22480;SDS011;11407;56.964;-2.212;2023-11-21T03:04:41;11.03;;;1.67;;
22480;SDS011;11407;56.964;-2.212;2023-11-21T03:07:07;5.50;;;1.20;;
22480;SDS011;11407;56.964;-2.212;2023-11-21T03:09:33;5.80;;;1.13;;
22480;SDS011;11407;56.964;-2.212;2023-11-21T03:11:58;5.57;;;1.20;;
22480;SDS011;11407;56.964;-2.212;2023-11-21T03:14:23;6.90;;;1.17;;
22480;SDS011;11407;56.964;-2.212;2023-11-21T03:16:49;6.53;;;1.20;;
22480;SDS011;11407;56.964;-2.212;2023-11-21T03:19:14;4.00;;;1.07;;
22480;SDS011;11407;56.964;-2.212;2023-11-21T03:21:40;5.10;;;1.13;;
22480;SDS011;11407;56.964;-2.212;2023-11-21T03:24:05;4.70;;;1.00;;
22480;SDS011;11407;56.964;-2.212;2023-11-21T03:26:32;4.87;;;1.00;;
22480;SDS011;11407;56.964;-2.212;2023-11-21T03:28:57;6.63;;;1.03;;
22480;SDS011;11407;56.964;-2.212;2023-11-21T03:31:22;3.97;;;1.10;;
22480;SDS011;11407;56.964;-2.212;2023-11-21T03:33:48;1.50;;;0.90;;
22480;SDS011;11407;56.964;-2.212;2023-11-21T03:36:13;3.70;;;0.83;;
22480;SDS011;11407;56.964;-2.212;2023-11-21T03:38:40;4.53;;;1.07;;
22480;SDS011;11407;56.964;-2.212;2023-11-21T03:41:05;7.50;;;1.80;;
22480;SDS011;11407;56.964;-2.212;2023-11-21T03:43:30;3.43;;;0.90;;
22480;SDS011;11407;56.964;-2.212;2023-11-21T03:45:56;5.17;;;0.90;;
22480;SDS011;11407;56.964;-2.212;2023-11-21T03:48:21;4.67;;;0.80;;
22480;SDS011;11407;56.964;-2.212;2023-11-21T03:50:46;3.00;;;0.97;;
22480;SDS011;11407;56.964;-2.212;2023-11-21T03:53:12;6.97;;;1.00;;
22480;SDS011;11407;56.964;-2.212;2023-11-21T03:55:37;4.80;;;1.23;;
22480;SDS011;11407;56.964;-2.212;2023-11-21T03:58:03;4.53;;;1.10;;
22480;SDS011;11407;56.964;-2.212;2023-11-21T04:00:28;6.53;;;1.43;;
22480;SDS011;11407;56.964;-2.212;2023-11-21T04:02:53;4.37;;;1.10;;
22480;SDS011;11407;56.964;-2.212;2023-11-21T04:05:19;4.60;;;1.10;;
22480;SDS011;11407;56.964;-2.212;2023-11-21T04:07:45;5.20;;;1.03;;
22480;SDS011;11407;56.964;-2.212;2023-11-21T04:10:10;7.33;;;0.90;;
22480;SDS011;11407;56.964;-2.212;2023-11-21T04:12:37;4.67;;;1.00;;
22480;SDS011;11407;56.964;-2.212;2023-11-21T04:15:03;8.63;;;1.23;;
22480;SDS011;11407;56.964;-2.212;2023-11-21T04:17:29;2.87;;;0.80;;
22480;SDS011;11407;56.964;-2.212;2023-11-21T04:19:54;4.83;;;1.20;;
22480;SDS011;11407;56.964;-2.212;2023-11-21T04:22:19;5.30;;;1.27;;
22480;SDS011;11407;56.964;-2.212;2023-11-21T04:24:45;6.30;;;1.20;;
22480;SDS011;11407;56.964;-2.212;2023-11-21T04:27:10;3.10;;;0.80;;
22480;SDS011;11407;56.964;-2.212;2023-11-21T04:29:35;4.07;;;1.20;;
22480;SDS011;11407;56.964;-2.212;2023-11-21T04:32:01;3.67;;;0.90;;
22480;SDS011;11407;56.964;-2.212;2023-11-21T04:34:27;6.50;;;1.07;;
22480;SDS011;11407;56.964;-2.212;2023-11-21T04:36:54;3.93;;;0.93;;
22480;SDS011;11407;56.964;-2.212;2023-11-21T04:39:20;7.20;;;1.03;;
22480;SDS011;11407;56.964;-2.212;2023-11-21T04:41:45;4.50;;;1.30;;
22480;SDS011;11407;56.964;-2.212;2023-11-21T04:44:10;5.23;;;0.90;;
22480;SDS011;11407;56.964;-2.212;2023-11-21T04:46:36;3.90;;;0.97;;
22480;SDS011;11407;56.964;-2.212;2023-11-21T04:49:01;4.30;;;0.90;;
22480;SDS011;11407;56.964;-2.212;2023-11-21T04:51:26;4.23;;;0.90;;
22480;SDS011;11407;56.964;-2.212;2023-11-21T04:53:52;4.20;;;0.93;;
22480;SDS011;11407;56.964;-2.212;2023-11-21T04:56:17;3.87;;;1.10;;
22480;SDS011;11407;56.964;-2.212;2023-11-21T04:58:43;2.77;;;1.07;;
22480;SDS011;11407;56.964;-2.212;2023-11-21T05:01:08;4.10;;;0.90;;
22480;SDS011;11407;56.964;-2.212;2023-11-21T05:03:33;2.33;;;0.90;;
22480;SDS011;11407;56.964;-2.212;2023-11-21T05:05:59;3.53;;;0.70;;
22480;SDS011;11407;56.964;-2.212;2023-11-21T05:08:24;4.43;;;1.10;;
22480;SDS011;11407;56.964;-2.212;2023-11-21T05:10:51;3.23;;;0.80;;
22480;SDS011;11407;56.964;-2.212;2023-11-21T05:13:17;6.13;;;1.27;;
22480;SDS011;11407;56.964;-2.212;2023-11-21T05:15:42;3.47;;;0.90;;
22480;SDS011;11407;56.964;-2.212;2023-11-21T05:18:08;6.27;;;1.23;;
22480;SDS011;11407;56.964;-2.212;2023-11-21T05:20:33;3.93;;;0.77;;
22480;SDS011;11407;56.964;-2.212;2023-11-21T05:22:58;4.47;;;1.00;;
22480;SDS011;11407;56.964;-2.212;2023-11-21T05:25:24;6.13;;;1.00;;
22480;SDS011;11407;56.964;-2.212;2023-11-21T05:27:49;6.73;;;0.87;;
22480;SDS011;11407;56.964;-2.212;2023-11-21T05:30:14;3.07;;;0.80;;
22480;SDS011;11407;56.964;-2.212;2023-11-21T05:32:40;6.97;;;1.13;;
22480;SDS011;11407;56.964;-2.212;2023-11-21T05:35:07;3.43;;;0.70;;
22480;SDS011;11407;56.964;-2.212;2023-11-21T05:37:37;3.57;;;0.97;;
22480;SDS011;11407;56.964;-2.212;2023-11-21T05:40:04;2.70;;;0.83;;
22480;SDS011;11407;56.964;-2.212;2023-11-21T05:42:30;3.60;;;0.90;;
22480;SDS011;11407;56.964;-2.212;2023-11-21T05:44:56;5.57;;;0.90;;
22480;SDS011;11407;56.964;-2.212;2023-11-21T05:47:24;3.33;;;0.80;;
22480;SDS011;11407;56.964;-2.212;2023-11-21T05:49:51;4.50;;;0.80;;
22480;SDS011;11407;56.964;-2.212;2023-11-21T05:52:17;3.63;;;0.90;;
22480;SDS011;11407;56.964;-2.212;2023-11-21T05:54:42;2.87;;;0.90;;
22480;SDS011;11407;56.964;-2.212;2023-11-21T05:57:07;3.13;;;0.90;;
22480;SDS011;11407;56.964;-2.212;2023-11-21T05:59:33;2.90;;;0.90;;
22480;SDS011;11407;56.964;-2.212;2023-11-21T06:01:59;4.63;;;1.00;;
22480;SDS011;11407;56.964;-2.212;2023-11-21T06:04:24;2.73;;;0.90;;
22480;SDS011;11407;56.964;-2.212;2023-11-21T06:06:50;1.80;;;0.97;;
22480;SDS011;11407;56.964;-2.212;2023-11-21T06:09:16;2.17;;;0.70;;
22480;SDS011;11407;56.964;-2.212;2023-11-21T06:11:41;4.33;;;1.30;;
22480;SDS011;11407;56.964;-2.212;2023-11-21T06:14:06;3.37;;;0.90;;
22480;SDS011;11407;56.964;-2.212;2023-11-21T06:16:33;1.43;;;0.70;;
22480;SDS011;11407;56.964;-2.212;2023-11-21T06:18:58;3.70;;;0.90;;
22480;SDS011;11407;56.964;-2.212;2023-11-21T06:21:23;2.33;;;0.97;;
22480;SDS011;11407;56.964;-2.212;2023-11-21T06:23:49;2.63;;;1.23;;
22480;SDS011;11407;56.964;-2.212;2023-11-21T06:26:14;4.33;;;0.90;;
22480;SDS011;11407;56.964;-2.212;2023-11-21T06:28:39;5.07;;;0.90;;
22480;SDS011;11407;56.964;-2.212;2023-11-21T06:31:05;3.20;;;0.80;;
22480;SDS011;11407;56.964;-2.212;2023-11-21T06:33:31;2.53;;;0.70;;
22480;SDS011;11407;56.964;-2.212;2023-11-21T06:35:56;6.10;;;1.47;;
22480;SDS011;11407;56.964;-2.212;2023-11-21T06:38:21;2.80;;;0.90;;
22480;SDS011;11407;56.964;-2.212;2023-11-21T06:40:46;5.10;;;0.87;;
22480;SDS011;11407;56.964;-2.212;2023-11-21T06:43:12;3.00;;;1.00;;
22480;SDS011;11407;56.964;-2.212;2023-11-21T06:45:37;1.97;;;0.80;;
22480;SDS011;11407;56.964;-2.212;2023-11-21T06:48:02;4.57;;;1.00;;
22480;SDS011;11407;56.964;-2.212;2023-11-21T06:50:27;2.47;;;1.10;;
22480;SDS011;11407;56.964;-2.212;2023-11-21T06:52:53;4.50;;;1.20;;
22480;SDS011;11407;56.964;-2.212;2023-11-21T06:55:18;5.60;;;1.37;;
22480;SDS011;11407;56.964;-2.212;2023-11-21T06:57:43;2.43;;;1.30;;
22480;SDS011;11407;56.964;-2.212;2023-11-21T07:00:10;7.27;;;1.20;;
22480;SDS011;11407;56.964;-2.212;2023-11-21T07:02:35;4.50;;;1.33;;
22480;SDS011;11407;56.964;-2.212;2023-11-21T07:05:00;1.60;;;0.90;;
22480;SDS011;11407;56.964;-2.212;2023-11-21T07:07:26;4.50;;;1.00;;
22480;SDS011;11407;56.964;-2.212;2023-11-21T07:09:52;3.33;;;0.80;;
22480;SDS011;11407;56.964;-2.212;2023-11-21T07:12:17;2.50;;;0.90;;
22480;SDS011;11407;56.964;-2.212;2023-11-21T07:14:42;4.73;;;0.90;;
22480;SDS011;11407;56.964;-2.212;2023-11-21T07:17:09;2.60;;;1.20;;
22480;SDS011;11407;56.964;-2.212;2023-11-21T07:19:35;3.33;;;1.07;;
22480;SDS011;11407;56.964;-2.212;2023-11-21T07:22:00;6.93;;;1.30;;
22480;SDS011;11407;56.964;-2.212;2023-11-21T07:24:26;2.93;;;1.67;;
22480;SDS011;11407;56.964;-2.212;2023-11-21T07:26:51;5.63;;;1.33;;
22480;SDS011;11407;56.964;-2.212;2023-11-21T07:29:21;3.07;;;1.00;;
22480;SDS011;11407;56.964;-2.212;2023-11-21T07:31:46;6.20;;;1.07;;
22480;SDS011;11407;56.964;-2.212;2023-11-21T07:34:12;4.10;;;1.00;;
22480;SDS011;11407;56.964;-2.212;2023-11-21T07:36:37;2.97;;;1.00;;
22480;SDS011;11407;56.964;-2.212;2023-11-21T07:39:02;2.33;;;1.10;;
22480;SDS011;11407;56.964;-2.212;2023-11-21T07:41:28;1.77;;;1.00;;
22480;SDS011;11407;56.964;-2.212;2023-11-21T07:43:54;4.83;;;1.40;;
22480;SDS011;11407;56.964;-2.212;2023-11-21T07:46:20;1.57;;;1.00;;
22480;SDS011;11407;56.964;-2.212;2023-11-21T07:48:47;2.03;;;1.00;;
22480;SDS011;11407;56.964;-2.212;2023-11-21T07:51:12;2.30;;;1.07;;
22480;SDS011;11407;56.964;-2.212;2023-11-21T07:53:38;4.60;;;1.17;;
22480;SDS011;11407;56.964;-2.212;2023-11-21T07:56:05;2.83;;;0.93;;
22480;SDS011;11407;56.964;-2.212;2023-11-21T07:58:30;6.13;;;1.07;;
22480;SDS011;11407;56.964;-2.212;2023-11-21T08:00:56;4.50;;;1.20;;
22480;SDS011;11407;56.964;-2.212;2023-11-21T08:03:21;1.67;;;1.03;;
22480;SDS011;11407;56.964;-2.212;2023-11-21T08:05:47;4.30;;;1.37;;
22480;SDS011;11407;56.964;-2.212;2023-11-21T08:08:12;2.50;;;1.13;;
22480;SDS011;11407;56.964;-2.212;2023-11-21T08:10:37;3.33;;;1.40;;
22480;SDS011;11407;56.964;-2.212;2023-11-21T08:13:03;4.13;;;1.37;;
22480;SDS011;11407;56.964;-2.212;2023-11-21T08:15:29;4.37;;;1.40;;
22480;SDS011;11407;56.964;-2.212;2023-11-21T08:17:56;2.13;;;0.97;;
22480;SDS011;11407;56.964;-2.212;2023-11-21T08:20:22;3.00;;;1.20;;
22480;SDS011;11407;56.964;-2.212;2023-11-21T08:22:47;2.67;;;1.23;;
22480;SDS011;11407;56.964;-2.212;2023-11-21T08:25:13;5.40;;;2.60;;
22480;SDS011;11407;56.964;-2.212;2023-11-21T08:27:38;4.93;;;2.50;;
22480;SDS011;11407;56.964;-2.212;2023-11-21T08:30:04;3.97;;;2.13;;
22480;SDS011;11407;56.964;-2.212;2023-11-21T08:32:29;8.73;;;2.97;;
22480;SDS011;11407;56.964;-2.212;2023-11-21T08:34:58;9.37;;;3.33;;
22480;SDS011;11407;56.964;-2.212;2023-11-21T08:37:23;6.37;;;2.77;;
22480;SDS011;11407;56.964;-2.212;2023-11-21T08:39:49;3.30;;;1.80;;
22480;SDS011;11407;56.964;-2.212;2023-11-21T08:42:14;2.27;;;1.40;;
22480;SDS011;11407;56.964;-2.212;2023-11-21T08:44:40;5.37;;;3.60;;
22480;SDS011;11407;56.964;-2.212;2023-11-21T08:47:05;5.37;;;3.80;;
22480;SDS011;11407;56.964;-2.212;2023-11-21T08:49:31;8.07;;;4.30;;
22480;SDS011;11407;56.964;-2.212;2023-11-21T08:51:56;5.60;;;2.83;;
22480;SDS011;11407;56.964;-2.212;2023-11-21T08:54:24;5.50;;;2.10;;
22480;SDS011;11407;56.964;-2.212;2023-11-21T08:56:50;3.63;;;1.80;;
22480;SDS011;11407;56.964;-2.212;2023-11-21T08:59:16;4.80;;;1.90;;
22480;SDS011;11407;56.964;-2.212;2023-11-21T09:01:41;4.53;;;1.70;;
22480;SDS011;11407;56.964;-2.212;2023-11-21T09:04:06;4.07;;;1.70;;
22480;SDS011;11407;56.964;-2.212;2023-11-21T09:06:31;4.73;;;1.20;;
22480;SDS011;11407;56.964;-2.212;2023-11-21T09:08:57;3.77;;;1.40;;
22480;SDS011;11407;56.964;-2.212;2023-11-21T09:11:23;2.63;;;1.20;;
22480;SDS011;11407;56.964;-2.212;2023-11-21T09:13:50;3.93;;;2.40;;
22480;SDS011;11407;56.964;-2.212;2023-11-21T09:16:16;4.13;;;2.50;;
22480;SDS011;11407;56.964;-2.212;2023-11-21T09:18:41;3.87;;;2.80;;
22480;SDS011;11407;56.964;-2.212;2023-11-21T09:21:06;7.13;;;3.20;;
22480;SDS011;11407;56.964;-2.212;2023-11-21T09:23:31;4.67;;;2.30;;
22480;SDS011;11407;56.964;-2.212;2023-11-21T09:25:57;6.27;;;2.60;;
22480;SDS011;11407;56.964;-2.212;2023-11-21T09:28:24;4.60;;;1.90;;
22480;SDS011;11407;56.964;-2.212;2023-11-21T09:30:50;3.93;;;2.50;;
22480;SDS011;11407;56.964;-2.212;2023-11-21T09:33:15;4.43;;;1.90;;
22480;SDS011;11407;56.964;-2.212;2023-11-21T09:35:41;3.10;;;1.70;;
22480;SDS011;11407;56.964;-2.212;2023-11-21T09:38:08;3.13;;;1.70;;
22480;SDS011;11407;56.964;-2.212;2023-11-21T09:40:36;4.43;;;1.50;;
22480;SDS011;11407;56.964;-2.212;2023-11-21T09:43:02;4.43;;;1.37;;
22480;SDS011;11407;56.964;-2.212;2023-11-21T09:45:32;4.77;;;1.37;;
22480;SDS011;11407;56.964;-2.212;2023-11-21T09:47:59;2.90;;;1.30;;
22480;SDS011;11407;56.964;-2.212;2023-11-21T09:50:25;2.83;;;1.60;;
22480;SDS011;11407;56.964;-2.212;2023-11-21T09:55:17;3.87;;;1.03;;
22480;SDS011;11407;56.964;-2.212;2023-11-21T09:57:46;2.97;;;1.40;;
22480;SDS011;11407;56.964;-2.212;2023-11-21T10:00:13;2.43;;;1.23;;
22480;SDS011;11407;56.964;-2.212;2023-11-21T10:02:42;2.43;;;1.23;;
22480;SDS011;11407;56.964;-2.212;2023-11-21T10:05:08;3.83;;;1.23;;
22480;SDS011;11407;56.964;-2.212;2023-11-21T10:07:36;2.67;;;0.93;;
22480;SDS011;11407;56.964;-2.212;2023-11-21T10:10:05;2.10;;;1.00;;
22480;SDS011;11407;56.964;-2.212;2023-11-21T10:12:30;3.27;;;1.00;;
22480;SDS011;11407;56.964;-2.212;2023-11-21T10:15:07;3.33;;;1.10;;
22480;SDS011;11407;56.964;-2.212;2023-11-21T10:17:38;4.67;;;1.10;;
22480;SDS011;11407;56.964;-2.212;2023-11-21T10:20:13;2.13;;;1.17;;
22480;SDS011;11407;56.964;-2.212;2023-11-21T10:22:42;4.97;;;0.90;;
22480;SDS011;11407;56.964;-2.212;2023-11-21T10:25:08;2.70;;;0.93;;
22480;SDS011;11407;56.964;-2.212;2023-11-21T10:27:34;3.87;;;1.20;;
22480;SDS011;11407;56.964;-2.212;2023-11-21T10:30:03;3.73;;;1.60;;
22480;SDS011;11407;56.964;-2.212;2023-11-21T10:32:29;5.47;;;1.07;;
22480;SDS011;11407;56.964;-2.212;2023-11-21T10:34:57;5.90;;;1.20;;
22480;SDS011;11407;56.964;-2.212;2023-11-21T10:37:24;4.17;;;1.20;;
22480;SDS011;11407;56.964;-2.212;2023-11-21T10:39:55;3.43;;;1.13;;
22480;SDS011;11407;56.964;-2.212;2023-11-21T10:42:21;4.13;;;1.20;;
22480;SDS011;11407;56.964;-2.212;2023-11-21T10:44:49;4.33;;;1.50;;
22480;SDS011;11407;56.964;-2.212;2023-11-21T10:47:14;6.83;;;2.10;;
22480;SDS011;11407;56.964;-2.212;2023-11-21T10:49:40;4.53;;;1.70;;
22480;SDS011;11407;56.964;-2.212;2023-11-21T10:52:05;3.50;;;1.60;;
22480;SDS011;11407;56.964;-2.212;2023-11-21T10:54:31;9.37;;;1.77;;
22480;SDS011;11407;56.964;-2.212;2023-11-21T10:56:57;5.03;;;1.77;;
22480;SDS011;11407;56.964;-2.212;2023-11-21T10:59:23;6.40;;;2.53;;
22480;SDS011;11407;56.964;-2.212;2023-11-21T11:01:51;3.27;;;1.90;;
22480;SDS011;11407;56.964;-2.212;2023-11-21T11:04:18;4.67;;;2.23;;
22480;SDS011;11407;56.964;-2.212;2023-11-21T11:06:43;4.77;;;2.63;;
22480;SDS011;11407;56.964;-2.212;2023-11-21T11:09:10;3.37;;;2.00;;
22480;SDS011;11407;56.964;-2.212;2023-11-21T11:11:39;7.53;;;3.23;;
22480;SDS011;11407;56.964;-2.212;2023-11-21T11:14:06;3.37;;;1.90;;
22480;SDS011;11407;56.964;-2.212;2023-11-21T11:16:31;3.33;;;1.70;;
22480;SDS011;11407;56.964;-2.212;2023-11-21T11:18:57;5.13;;;2.77;;
22480;SDS011;11407;56.964;-2.212;2023-11-21T11:34:23;2.83;;;1.60;;
22480;SDS011;11407;56.964;-2.212;2023-11-21T11:39:35;3.73;;;1.33;;
22480;SDS011;11407;56.964;-2.212;2023-11-21T11:42:01;4.30;;;1.50;;
22480;SDS011;11407;56.964;-2.212;2023-11-21T11:47:24;3.07;;;1.30;;
22480;SDS011;11407;56.964;-2.212;2023-11-21T11:50:04;3.67;;;1.27;;
22480;SDS011;11407;56.964;-2.212;2023-11-21T11:54:59;4.57;;;1.17;;
22480;SDS011;11407;56.964;-2.212;2023-11-21T11:57:24;1.77;;;1.03;;
22480;SDS011;11407;56.964;-2.212;2023-11-21T12:00:10;2.17;;;1.10;;
22480;SDS011;11407;56.964;-2.212;2023-11-21T12:02:41;2.63;;;1.40;;
22480;SDS011;11407;56.964;-2.212;2023-11-21T12:05:10;2.53;;;1.10;;
22480;SDS011;11407;56.964;-2.212;2023-11-21T12:07:54;4.23;;;1.60;;
22480;SDS011;11407;56.964;-2.212;2023-11-21T12:10:20;6.20;;;2.50;;
22480;SDS011;11407;56.964;-2.212;2023-11-21T12:12:47;6.50;;;2.50;;
22480;SDS011;11407;56.964;-2.212;2023-11-21T12:15:12;5.33;;;2.60;;
22480;SDS011;11407;56.964;-2.212;2023-11-21T12:17:38;4.33;;;2.00;;
22480;SDS011;11407;56.964;-2.212;2023-11-21T12:20:04;3.47;;;1.40;;
22480;SDS011;11407;56.964;-2.212;2023-11-21T12:22:31;4.57;;;2.00;;
22480;SDS011;11407;56.964;-2.212;2023-11-21T12:24:56;4.93;;;1.50;;
22480;SDS011;11407;56.964;-2.212;2023-11-21T12:27:22;2.03;;;1.27;;
22480;SDS011;11407;56.964;-2.212;2023-11-21T12:29:47;3.37;;;1.30;;
22480;SDS011;11407;56.964;-2.212;2023-11-21T12:32:12;3.17;;;1.90;;
22480;SDS011;11407;56.964;-2.212;2023-11-21T12:34:40;3.73;;;2.00;;
22480;SDS011;11407;56.964;-2.212;2023-11-21T12:37:05;7.13;;;3.10;;
22480;SDS011;11407;56.964;-2.212;2023-11-21T12:39:30;5.43;;;2.47;;
22480;SDS011;11407;56.964;-2.212;2023-11-21T12:41:56;5.77;;;2.57;;
22480;SDS011;11407;56.964;-2.212;2023-11-21T12:44:21;6.03;;;2.13;;
22480;SDS011;11407;56.964;-2.212;2023-11-21T12:46:48;4.77;;;1.40;;
22480;SDS011;11407;56.964;-2.212;2023-11-21T12:49:14;2.73;;;1.10;;
22480;SDS011;11407;56.964;-2.212;2023-11-21T12:51:43;4.20;;;1.13;;
22480;SDS011;11407;56.964;-2.212;2023-11-21T12:54:08;2.83;;;1.17;;
22480;SDS011;11407;56.964;-2.212;2023-11-21T12:56:38;3.73;;;1.43;;
22480;SDS011;11407;56.964;-2.212;2023-11-21T12:59:03;4.20;;;1.20;;
22480;SDS011;11407;56.964;-2.212;2023-11-21T13:01:30;4.70;;;1.10;;
22480;SDS011;11407;56.964;-2.212;2023-11-21T13:03:56;2.57;;;0.90;;
22480;SDS011;11407;56.964;-2.212;2023-11-21T13:06:22;1.97;;;1.00;;
22480;SDS011;11407;56.964;-2.212;2023-11-21T13:08:50;2.77;;;1.00;;
22480;SDS011;11407;56.964;-2.212;2023-11-21T13:11:15;3.90;;;1.20;;
22480;SDS011;11407;56.964;-2.212;2023-11-21T13:13:42;3.87;;;1.00;;
22480;SDS011;11407;56.964;-2.212;2023-11-21T13:16:11;6.17;;;2.00;;
22480;SDS011;11407;56.964;-2.212;2023-11-21T13:18:36;10.37;;;4.40;;
22480;SDS011;11407;56.964;-2.212;2023-11-21T13:21:03;6.27;;;2.17;;
22480;SDS011;11407;56.964;-2.212;2023-11-21T13:23:38;3.63;;;1.80;;
22480;SDS011;11407;56.964;-2.212;2023-11-21T13:26:05;5.60;;;1.90;;
22480;SDS011;11407;56.964;-2.212;2023-11-21T13:28:31;5.67;;;1.80;;
22480;SDS011;11407;56.964;-2.212;2023-11-21T13:30:58;4.27;;;2.03;;
22480;SDS011;11407;56.964;-2.212;2023-11-21T13:33:28;6.17;;;3.00;;
22480;SDS011;11407;56.964;-2.212;2023-11-21T13:35:53;7.87;;;3.00;;
22480;SDS011;11407;56.964;-2.212;2023-11-21T13:38:20;6.07;;;2.80;;
22480;SDS011;11407;56.964;-2.212;2023-11-21T13:40:51;4.53;;;1.80;;
22480;SDS011;11407;56.964;-2.212;2023-11-21T13:43:21;3.17;;;1.50;;
22480;SDS011;11407;56.964;-2.212;2023-11-21T13:45:49;2.37;;;1.00;;
22480;SDS011;11407;56.964;-2.212;2023-11-21T13:48:33;5.03;;;1.33;;
22480;SDS011;11407;56.964;-2.212;2023-11-21T13:51:12;2.30;;;1.00;;
22480;SDS011;11407;56.964;-2.212;2023-11-21T13:53:45;3.43;;;1.30;;
22480;SDS011;11407;56.964;-2.212;2023-11-21T13:56:16;6.13;;;1.50;;
22480;SDS011;11407;56.964;-2.212;2023-11-21T13:58:53;4.40;;;1.53;;
22480;SDS011;11407;56.964;-2.212;2023-11-21T14:01:23;3.77;;;1.33;;
22480;SDS011;11407;56.964;-2.212;2023-11-21T14:06:27;3.07;;;1.30;;
22480;SDS011;11407;56.964;-2.212;2023-11-21T14:08:59;4.43;;;1.10;;
22480;SDS011;11407;56.964;-2.212;2023-11-21T14:11:30;2.00;;;1.13;;
22480;SDS011;11407;56.964;-2.212;2023-11-21T14:13:55;3.00;;;1.23;;
22480;SDS011;11407;56.964;-2.212;2023-11-21T14:16:21;4.70;;;1.17;;
22480;SDS011;11407;56.964;-2.212;2023-11-21T14:18:47;3.27;;;1.17;;
22480;SDS011;11407;56.964;-2.212;2023-11-21T14:21:26;12.70;;;2.60;;
22480;SDS011;11407;56.964;-2.212;2023-11-21T14:23:52;2.57;;;1.00;;
22480;SDS011;11407;56.964;-2.212;2023-11-21T14:26:19;1.73;;;1.07;;
22480;SDS011;11407;56.964;-2.212;2023-11-21T14:28:45;3.00;;;1.10;;
22480;SDS011;11407;56.964;-2.212;2023-11-21T14:31:13;4.57;;;1.37;;
22480;SDS011;11407;56.964;-2.212;2023-11-21T14:33:40;3.83;;;1.23;;
22480;SDS011;11407;56.964;-2.212;2023-11-21T14:36:06;3.03;;;1.27;;
22480;SDS011;11407;56.964;-2.212;2023-11-21T14:38:35;4.23;;;1.40;;
22480;SDS011;11407;56.964;-2.212;2023-11-21T14:41:00;4.53;;;1.80;;
22480;SDS011;11407;56.964;-2.212;2023-11-21T14:43:25;3.67;;;1.63;;
22480;SDS011;11407;56.964;-2.212;2023-11-21T14:45:54;3.37;;;1.90;;
22480;SDS011;11407;56.964;-2.212;2023-11-21T14:48:21;3.77;;;1.60;;
22480;SDS011;11407;56.964;-2.212;2023-11-21T14:51:05;1.63;;;1.17;;
22480;SDS011;11407;56.964;-2.212;2023-11-21T14:53:32;3.83;;;1.30;;
22480;SDS011;11407;56.964;-2.212;2023-11-21T14:56:19;4.90;;;1.67;;